Dalesburg, Kentucky
Current Conditions -  °F | °C
As of 4:35 PM on Sunday 23 Nov 2014 (Local Time) from KFGX Reporting Station
Light Rain Light Rain  
Wind Chill: 53°   Ceiling: 6500
Heat Index: 53°   Visibility: 3mi
Dew Point: 52°   Wind: 15mph
Humidity: 95%   Direction: 110°ESE
Pressure: 29.63"   Gusts: NA
Location:  38.436°N, 83.6931°W
Report Text: KFGX 232135Z AUTO 11013KT 3SM -RA SCT042 SCT050 OVC065 12/11 A2963 RMK AO2 T01180110
Loading
Personal Weather Stations






























Interactive Weather Map New forecast layout! Learn more

10-Day Weather Forecast

Advertisements
Track Severe Weather on mobile